Time;durP1;ratioP1;P1;durP2;ratioP2;P2;SDS_P1;SDS_P2;PMS_P1;PMS_P2;Temp;Humidity;BMP_temperature;BMP_pressure;BME280_temperature;BME280_humidity;BME280_pressure;Samples;Min_cycle;Max_cycle;Signal;HPM_P1;HPM_P2
2021/01/31 00:00:28;;;;;;;23.00;16.63;;;-0.70;99.90;;;-3.94;100.00;99372.75;4978936;28;100879;-68
2021/01/31 00:02:55;;;;;;;20.87;16.33;;;-0.80;99.90;;;-4.01;100.00;99370.50;4980324;28;100698;-68
2021/01/31 00:05:23;;;;;;;25.13;15.90;;;-0.70;99.90;;;-4.08;100.00;99365.75;4979929;28;100783;-68
2021/01/31 00:07:51;;;;;;;23.57;16.57;;;-0.90;99.90;;;-4.05;100.00;99365.53;4980525;28;99992;-68
2021/01/31 00:10:21;;;;;;;24.63;17.30;;;-1.00;99.90;;;-3.96;100.00;99364.19;4957392;28;618096;-68
2021/01/31 00:12:48;;;;;;;22.43;15.30;;;-1.00;99.90;;;-3.80;100.00;99368.41;4980824;28;100688;-68
2021/01/31 00:15:18;;;;;;;19.60;14.30;;;-1.00;99.90;;;-3.67;100.00;99371.13;4981886;28;100413;-68
2021/01/31 00:17:44;;;;;;;20.90;15.13;;;-0.90;99.90;;;-4.10;100.00;99358.00;4981166;28;100064;-68
2021/01/31 00:20:13;;;;;;;19.27;14.70;;;-1.10;99.90;;;-4.25;100.00;99374.53;4980731;28;101437;-67
2021/01/31 00:22:40;;;;;;;21.13;15.97;;;-1.00;99.90;;;-4.22;100.00;99369.16;4980628;28;100417;-68
2021/01/31 00:25:09;;;;;;;17.90;13.47;;;-1.00;99.90;;;-4.06;100.00;99363.84;4981340;28;100695;-68
2021/01/31 00:27:36;;;;;;;17.63;13.03;;;-1.00;99.90;;;-3.56;100.00;99360.03;4981550;28;100364;-68
2021/01/31 00:30:08;;;;;;;21.20;14.30;;;-0.90;99.90;;;-3.69;100.00;99363.38;4980842;28;102130;-68
2021/01/31 00:32:34;;;;;;;24.27;15.27;;;-0.90;99.90;;;-3.89;100.00;99363.72;4981287;28;100395;-65
2021/01/31 00:35:01;;;;;;;21.07;15.03;;;-1.10;99.90;;;-3.87;100.00;99366.25;4980400;28;100282;-66
2021/01/31 00:37:27;;;;;;;22.60;15.33;;;-1.10;99.90;;;-3.56;100.00;99363.50;4981542;28;100125;-66
2021/01/31 00:39:53;;;;;;;23.93;15.13;;;-1.10;99.90;;;-3.58;100.00;99365.34;4982063;27;100910;-66
2021/01/31 00:42:22;;;;;;;24.80;17.30;;;-1.00;99.90;;;-3.95;100.00;99368.47;4985086;28;100981;-66
2021/01/31 00:44:52;;;;;;;29.37;19.67;;;-1.00;99.90;;;-4.17;100.00;99359.25;4985323;28;100264;-66
2021/01/31 00:47:19;;;;;;;22.87;15.77;;;-1.00;99.90;;;-4.55;100.00;99368.44;4983711;28;99948;-66
2021/01/31 00:49:48;;;;;;;22.43;16.13;;;-1.10;99.90;;;-4.24;100.00;99362.31;4983791;28;100596;-66
2021/01/31 00:52:15;;;;;;;23.17;17.13;;;-1.20;99.90;;;-4.05;100.00;99361.16;4984224;28;101085;-66
2021/01/31 00:54:43;;;;;;;30.10;19.43;;;-1.40;99.90;;;-4.38;100.00;99360.50;4981864;28;100306;-66
2021/01/31 00:57:09;;;;;;;27.00;17.63;;;-1.30;99.90;;;-4.25;100.00;99355.41;4982081;28;101924;-66
2021/01/31 00:59:37;;;;;;;24.20;16.63;;;-1.20;99.90;;;-3.86;100.00;99357.50;4981343;28;103356;-66
2021/01/31 01:02:07;;;;;;;27.73;19.07;;;-1.30;99.90;;;-3.97;100.00;99346.81;4982121;28;102572;-66
2021/01/31 01:04:35;;;;;;;33.60;24.10;;;-1.30;99.90;;;-4.27;100.00;99358.09;4981847;28;100240;-66
2021/01/31 01:07:06;;;;;;;44.57;29.17;;;-2.00;99.90;;;-3.78;100.00;99369.16;4981725;28;100398;-65
2021/01/31 01:09:33;;;;;;;91.53;47.37;;;-1.30;99.90;;;-3.95;100.00;99363.22;4983328;28;100885;-68
2021/01/31 01:11:59;;;;;;;39.03;24.93;;;-1.40;99.90;;;-4.29;100.00;99370.41;4982761;28;100404;-67
2021/01/31 01:14:26;;;;;;;34.10;23.33;;;-1.40;99.90;;;-4.08;100.00;99368.34;4984522;28;100151;-67
2021/01/31 01:16:54;;;;;;;36.37;23.87;;;-1.40;99.90;;;-4.52;100.00;99382.16;4984301;28;100105;-67
2021/01/31 01:19:20;;;;;;;33.17;20.20;;;-1.40;99.90;;;-4.64;100.00;99385.44;4984896;28;101033;-65
2021/01/31 01:21:47;;;;;;;20.37;15.13;;;-1.50;99.90;;;-4.71;100.00;99377.13;4983383;28;101309;-65
2021/01/31 01:24:13;;;;;;;17.33;13.40;;;-0.60;99.90;;;-4.91;100.00;99377.38;4983626;28;100078;-65
2021/01/31 01:26:39;;;;;;;17.77;13.40;;;-1.10;99.90;;;-4.88;100.00;99381.59;4983070;28;100100;-65
2021/01/31 01:29:06;;;;;;;18.57;13.10;;;-1.40;99.90;;;-4.98;100.00;99383.00;4984221;28;101509;-65
2021/01/31 01:31:32;;;;;;;17.40;11.87;;;-1.60;99.90;;;-5.02;100.00;99378.88;4983943;28;100800;-68
2021/01/31 01:33:59;;;;;;;17.27;12.60;;;-1.60;99.90;;;-5.01;100.00;99380.56;4983980;28;100297;-66
2021/01/31 01:36:26;;;;;;;15.10;10.80;;;-1.70;99.90;;;-5.14;100.00;99382.97;4984024;28;100391;-66
2021/01/31 01:38:52;;;;;;;16.20;10.50;;;-1.80;99.90;;;-5.19;100.00;99380.59;4985359;28;100784;-67
2021/01/31 01:41:21;;;;;;;12.30;9.47;;;-1.00;99.90;;;-5.22;100.00;99372.13;4984479;28;100643;-66
2021/01/31 01:43:53;;;;;;;13.13;10.03;;;-2.60;99.90;;;-5.08;100.00;99370.47;4984479;28;100624;-66
2021/01/31 01:46:37;;;;;;;15.30;11.23;;;-1.80;99.90;;;-5.06;100.00;99368.59;4984699;28;100247;-66
2021/01/31 01:49:13;;;;;;;16.10;11.47;;;-1.80;99.90;;;-5.20;100.00;99373.75;4982998;28;100969;-66
2021/01/31 01:51:48;;;;;;;16.47;11.83;;;-1.90;99.90;;;-5.23;100.00;99367.84;4981520;27;100637;-66
2021/01/31 01:54:18;;;;;;;14.77;11.03;;;-1.20;99.90;;;-5.23;100.00;99373.06;4983633;28;100015;-66
2021/01/31 01:56:50;;;;;;;17.27;11.47;;;-1.90;99.90;;;-5.29;100.00;99369.00;4983084;28;100178;-66
2021/01/31 01:59:16;;;;;;;17.57;11.50;;;-1.10;99.90;;;-5.30;100.00;99371.66;4983027;28;101638;-65
2021/01/31 02:01:48;;;;;;;16.93;11.47;;;-1.50;99.90;;;-5.38;100.00;99379.06;4982819;28;101394;-66
2021/01/31 02:04:15;;;;;;;15.97;10.90;;;-2.10;99.90;;;-4.95;100.00;99381.09;4983208;28;100252;-66
2021/01/31 02:06:41;;;;;;;15.80;11.20;;;-2.10;99.90;;;-5.06;100.00;99376.41;4983626;28;100331;-64
2021/01/31 02:09:08;;;;;;;16.63;10.90;;;-2.10;99.90;;;-5.17;100.00;99381.38;4982661;28;101547;-66
2021/01/31 02:11:35;;;;;;;20.20;11.00;;;-2.20;99.90;;;-5.48;100.00;99376.09;4981962;28;100545;-66
2021/01/31 02:14:07;;;;;;;15.00;10.30;;;-2.40;99.90;;;-5.38;100.00;99387.72;4982048;28;100097;-64
2021/01/31 02:16:52;;;;;;;14.50;10.23;;;-1.90;99.90;;;-5.44;100.00;99383.66;4982886;28;100440;-64
2021/01/31 02:20:17;;;;;;;16.33;11.10;;;-2.30;99.90;;;-5.42;100.00;99387.03;4982647;28;100786;-65
2021/01/31 02:23:26;;;;;;;17.43;11.53;;;-2.30;99.90;;;-5.09;100.00;99378.38;4970811;28;103626;-65
2021/01/31 02:26:03;;;;;;;18.53;13.50;;;-2.00;99.90;;;-4.92;100.00;99386.13;4981830;28;100382;-64
2021/01/31 02:28:53;;;;;;;15.83;12.10;;;-1.80;99.90;;;-4.98;100.00;99381.25;4963791;28;100046;-64
2021/01/31 02:31:57;;;;;;;17.30;11.70;;;-2.30;99.90;;;-5.04;100.00;99380.72;4962216;28;101536;-64
2021/01/31 02:34:37;;;;;;;15.80;10.97;;;-2.40;99.90;;;-5.70;100.00;99386.81;4962659;28;100065;-63
2021/01/31 02:37:19;;;;;;;18.77;11.97;;;-2.40;99.90;;;-5.84;100.00;99391.88;4981374;28;100097;-64
2021/01/31 02:39:56;;;;;;;15.90;11.53;;;-2.40;99.90;;;-5.77;100.00;99390.63;4981401;28;100180;-64
2021/01/31 02:42:35;;;;;;;18.27;11.70;;;-2.40;99.90;;;-5.44;100.00;99394.09;4982221;28;101252;-64
2021/01/31 02:45:19;;;;;;;18.10;13.10;;;-1.60;99.90;;;-5.27;100.00;99388.00;4982845;28;100298;-64
2021/01/31 02:47:52;;;;;;;16.67;11.43;;;-2.50;99.90;;;-5.58;100.00;99391.38;4982258;28;99893;-64
2021/01/31 02:50:24;;;;;;;17.17;10.83;;;-2.00;99.90;;;-5.67;100.00;99391.84;4982019;28;100115;-63
2021/01/31 02:52:56;;;;;;;14.20;11.23;;;-2.40;99.90;;;-5.68;100.00;99392.75;4981600;28;101791;-64
2021/01/31 02:55:28;;;;;;;17.37;12.83;;;-2.40;99.90;;;-5.62;100.00;99382.03;4981371;28;101309;-64
2021/01/31 02:58:03;;;;;;;16.43;12.37;;;-2.20;99.90;;;-5.04;100.00;99388.53;4982645;28;99994;-64
2021/01/31 03:00:35;;;;;;;17.90;12.13;;;-2.20;99.90;;;-5.30;100.00;99388.16;4981432;28;100207;-63
2021/01/31 03:03:11;;;;;;;17.03;11.77;;;-2.20;99.90;;;-5.50;100.00;99393.59;4982301;28;101376;-63
2021/01/31 03:05:42;;;;;;;16.57;11.50;;;-2.20;99.90;;;-5.21;100.00;99392.91;4981911;28;100725;-64
2021/01/31 03:08:14;;;;;;;16.23;11.67;;;-2.30;99.90;;;-5.05;100.00;99395.53;4981379;28;100040;-63
2021/01/31 03:10:47;;;;;;;18.40;11.33;;;-2.10;99.90;;;-4.93;100.00;99397.47;4981655;28;100397;-63
2021/01/31 03:13:21;;;;;;;16.40;12.13;;;-2.00;99.90;;;-5.44;100.00;99399.31;4981889;28;100867;-63
2021/01/31 03:15:53;;;;;;;17.33;12.47;;;-2.40;99.90;;;-4.97;100.00;99393.38;4981616;28;101039;-63
2021/01/31 03:18:25;;;;;;;18.43;10.80;;;-1.80;99.90;;;-5.12;100.00;99402.00;4981917;28;100325;-63
2021/01/31 03:21:23;;;;;;;16.13;10.87;;;-1.60;99.90;;;-5.58;100.00;99394.00;4981355;28;100639;-65
2021/01/31 03:24:01;;;;;;;15.43;11.40;;;-2.50;99.90;;;-5.53;100.00;99391.97;4979424;28;101404;-63
2021/01/31 03:26:35;;;;;;;14.77;10.47;;;-2.60;99.90;;;-5.55;100.00;99393.81;4982125;28;100538;-63
2021/01/31 03:29:02;;;;;;;15.27;10.57;;;-1.60;99.90;;;-4.91;100.00;99400.84;4983412;28;100190;-63
2021/01/31 03:31:30;;;;;;;16.93;11.80;;;-2.80;99.90;;;-5.06;100.00;99404.28;4984468;28;100071;-64
2021/01/31 03:34:03;;;;;;;15.70;10.03;;;-2.30;99.90;;;-5.80;100.00;99414.22;4982609;28;100661;-65
2021/01/31 03:36:32;;;;;;;15.47;10.57;;;-3.40;99.90;;;-6.36;100.00;99411.84;4982292;28;100268;-65
2021/01/31 03:39:01;;;;;;;13.43;10.60;;;-2.40;99.90;;;-6.58;100.00;99418.09;4982785;28;100264;-62
2021/01/31 03:41:29;;;;;;;14.37;9.40;;;-2.60;99.90;;;-5.96;100.00;99413.34;4982062;28;100196;-63
2021/01/31 03:43:56;;;;;;;16.13;11.40;;;-3.10;99.90;;;-6.23;100.00;99415.53;4982343;28;100803;-65
2021/01/31 03:46:28;;;;;;;14.27;10.00;;;-3.30;99.90;;;-5.95;100.00;99428.91;4981255;28;100415;-62
2021/01/31 03:49:00;;;;;;;16.07;10.63;;;-2.90;99.90;;;-6.31;100.00;99428.94;4981214;28;100083;-65
2021/01/31 03:51:28;;;;;;;16.13;11.03;;;-2.10;99.90;;;-6.50;100.00;99428.13;4981526;28;100178;-61
2021/01/31 03:53:56;;;;;;;30.57;13.90;;;-3.30;99.90;;;-6.82;100.00;99431.38;4981823;28;101126;-62
2021/01/31 03:56:28;;;;;;;37.53;13.67;;;-2.50;99.90;;;-6.82;100.00;99431.38;4981071;28;100479;-64
2021/01/31 03:58:57;;;;;;;57.13;14.00;;;-3.40;99.90;;;-6.73;100.00;99434.41;4981309;28;100054;-64
2021/01/31 04:01:26;;;;;;;60.90;15.43;;;-2.90;99.90;;;-6.90;100.00;99442.97;4980921;28;100204;-64
2021/01/31 04:04:04;;;;;;;192.47;24.27;;;-3.20;99.90;;;-6.55;100.00;99436.13;4981363;28;101411;-63
2021/01/31 04:06:34;;;;;;;87.37;19.20;;;-2.40;99.90;;;-7.00;100.00;99444.31;4981633;28;99990;-64
2021/01/31 04:09:03;;;;;;;55.50;17.90;;;-3.20;99.90;;;-6.97;100.00;99440.72;4982055;28;100141;-63
2021/01/31 04:11:34;;;;;;;78.00;19.47;;;-3.20;99.90;;;-6.97;100.00;99440.72;4980408;28;100058;-63
2021/01/31 04:14:09;;;;;;;121.47;19.17;;;-3.20;99.90;;;-7.06;100.00;99443.75;4981545;27;100391;-63
2021/01/31 04:16:47;;;;;;;63.90;18.13;;;-3.30;99.90;;;-7.00;100.00;99438.25;4984771;28;100530;-63
2021/01/31 04:19:15;;;;;;;187.53;22.47;;;-3.40;99.90;;;-7.54;100.00;99451.94;4975331;28;100088;-64
2021/01/31 04:21:42;;;;;;;129.67;20.17;;;-2.80;99.90;;;-7.55;100.00;99455.44;4984344;28;100223;-63
2021/01/31 04:24:09;;;;;;;125.20;20.20;;;-3.50;99.90;;;-7.34;100.00;99446.72;4983811;28;100803;-63
2021/01/31 04:26:36;;;;;;;112.10;20.67;;;-3.50;99.90;;;-7.48;100.00;99444.72;4984958;28;100692;-63
2021/01/31 04:29:03;;;;;;;140.40;22.43;;;-3.50;99.90;;;-7.46;100.00;99440.31;4984518;28;100079;-63
2021/01/31 04:31:30;;;;;;;90.53;19.07;;;-2.70;99.90;;;-7.37;100.00;99452.03;4971094;28;100269;-62
2021/01/31 04:33:57;;;;;;;105.73;16.13;;;-3.70;99.90;;;-7.52;100.00;99450.94;4984312;28;102021;-62
2021/01/31 04:36:24;;;;;;;116.33;20.60;;;-2.50;99.90;;;-7.72;100.00;99454.41;4984325;28;100485;-62
2021/01/31 04:38:52;;;;;;;74.27;15.93;;;-3.50;99.90;;;-7.66;100.00;99442.91;4984692;28;100440;-63
2021/01/31 04:41:20;;;;;;;50.13;15.33;;;-3.60;99.90;;;-7.42;100.00;99439.28;4984227;28;100017;-62
2021/01/31 04:43:50;;;;;;;50.00;15.00;;;-3.80;99.90;;;-7.68;100.00;99445.59;4984283;28;100902;-62
2021/01/31 04:46:20;;;;;;;25.53;12.03;;;-3.10;99.90;;;-7.42;100.00;99439.28;4983856;28;100524;-62
2021/01/31 04:49:03;;;;;;;25.77;11.97;;;-2.70;99.90;;;-7.62;100.00;99447.06;4982997;28;100085;-64
2021/01/31 04:51:52;;;;;;;31.10;12.00;;;-3.80;99.90;;;-7.51;100.00;99446.59;4983722;28;100463;-63
2021/01/31 04:54:41;;;;;;;35.80;13.40;;;-3.60;99.90;;;-7.74;100.00;99443.22;4983561;28;100221;-61
2021/01/31 04:57:13;;;;;;;55.37;13.20;;;-3.90;99.90;;;-7.92;100.00;99451.81;4983255;28;101428;-62
2021/01/31 04:59:44;;;;;;;43.10;13.03;;;-4.00;99.90;;;-7.89;100.00;99451.66;4984066;28;100542;-62
2021/01/31 05:02:16;;;;;;;61.33;13.63;;;-4.10;99.90;;;-7.87;100.00;99452.44;4984457;28;100197;-63
2021/01/31 05:04:51;;;;;;;60.73;14.70;;;-4.10;99.90;;;-7.81;100.00;99456.56;4984509;28;101408;-63
2021/01/31 05:07:20;;;;;;;48.37;13.60;;;-4.20;99.90;;;-7.89;100.00;99445.63;4984260;28;100362;-63
2021/01/31 05:09:47;;;;;;;37.90;13.07;;;-4.20;99.90;;;-7.84;100.00;99451.47;4984041;28;100195;-63
2021/01/31 05:12:21;;;;;;;61.10;16.70;;;-4.30;99.90;;;-8.05;100.00;99461.00;4983470;28;100266;-62
2021/01/31 05:15:15;;;;;;;32.03;14.23;;;-4.10;99.90;;;-8.19;100.00;99456.38;4982769;28;101296;-63
2021/01/31 05:17:46;;;;;;;44.83;14.40;;;-4.20;99.90;;;-8.02;100.00;99463.44;4983615;28;100998;-63
2021/01/31 05:20:17;;;;;;;54.90;15.60;;;-4.10;99.90;;;-8.08;100.00;99469.75;4984625;28;100086;-63
2021/01/31 05:22:48;;;;;;;37.37;13.50;;;-4.00;99.90;;;-8.00;100.00;99464.25;4983621;28;100293;-63
2021/01/31 05:25:18;;;;;;;38.50;15.27;;;-4.10;99.90;;;-7.87;100.00;99467.19;4983332;27;101290;-63
2021/01/31 05:27:46;;;;;;;47.43;15.50;;;-4.10;99.90;;;-8.17;100.00;99479.66;4982948;28;101275;-64
2021/01/31 05:30:14;;;;;;;34.70;14.80;;;-4.10;99.90;;;-7.98;100.00;99476.25;4983848;28;100205;-60
2021/01/31 05:33:02;;;;;;;37.83;14.90;;;-4.20;99.90;;;-8.12;100.00;99482.91;4984078;28;100451;-63
2021/01/31 05:35:31;;;;;;;62.83;14.70;;;-4.00;99.90;;;-7.99;100.00;99471.13;4983903;28;101321;-64
2021/01/31 05:37:57;;;;;;;51.60;14.93;;;-4.20;99.90;;;-8.26;100.00;99477.41;4983257;28;101051;-61
2021/01/31 05:40:31;;;;;;;81.87;15.80;;;-4.20;99.90;;;-8.12;100.00;99477.72;4982712;28;100173;-61
2021/01/31 05:42:59;;;;;;;46.73;13.80;;;-3.00;99.90;;;-8.25;100.00;99476.50;4983106;28;99970;-63
2021/01/31 05:45:33;;;;;;;34.33;13.10;;;-4.10;99.90;;;-8.35;100.00;99478.66;4983419;28;100730;-63
2021/01/31 05:48:15;;;;;;;56.97;15.07;;;-4.00;99.90;;;-8.26;100.00;99480.00;4983109;28;100608;-62
2021/01/31 05:50:43;;;;;;;55.67;14.63;;;-3.50;99.90;;;-8.23;100.00;99482.50;4982876;28;100399;-62
2021/01/31 05:53:31;;;;;;;86.60;16.80;;;-3.20;99.90;;;-8.31;100.00;99472.41;4983440;28;100396;-62
2021/01/31 05:56:16;;;;;;;84.10;15.80;;;-3.90;99.90;;;-7.93;100.00;99481.28;4982882;28;100583;-62
2021/01/31 05:58:43;;;;;;;79.67;15.23;;;-4.80;99.90;;;-8.33;100.00;99481.19;4982837;28;100278;-62
2021/01/31 06:01:12;;;;;;;71.23;15.23;;;-3.50;99.90;;;-8.40;100.00;99485.75;4983464;28;100086;-63
2021/01/31 06:03:39;;;;;;;92.67;16.17;;;-4.20;99.90;;;-8.57;100.00;99488.19;4983847;28;100221;-63
2021/01/31 06:06:16;;;;;;;54.40;14.43;;;-4.40;99.90;;;-8.61;100.00;99497.81;4983250;28;100172;-62
2021/01/31 06:08:46;;;;;;;57.53;14.53;;;-4.40;99.90;;;-8.71;100.00;99499.91;4983104;28;100429;-62
2021/01/31 06:11:24;;;;;;;49.60;13.53;;;-4.30;99.90;;;-8.74;100.00;99494.84;4983082;28;100410;-65
2021/01/31 06:14:06;;;;;;;40.97;13.33;;;-3.70;99.90;;;-8.77;100.00;99499.28;4983594;28;100295;-64
2021/01/31 06:16:35;;;;;;;54.33;15.20;;;-4.40;99.90;;;-8.80;100.00;99499.44;4982595;28;101114;-62
2021/01/31 06:19:08;;;;;;;52.23;15.27;;;-4.40;99.90;;;-8.85;100.00;99503.91;4983167;28;101316;-62
2021/01/31 06:21:41;;;;;;;30.67;12.27;;;-3.90;99.90;;;-8.88;100.00;99506.63;4982969;28;99969;-62
2021/01/31 06:24:27;;;;;;;37.97;13.43;;;-4.50;99.90;;;-8.90;100.00;99498.91;4980963;28;100017;-61
2021/01/31 06:26:56;;;;;;;34.13;13.23;;;-4.60;99.90;;;-8.91;100.00;99509.34;4982184;28;101731;-63
2021/01/31 06:29:34;;;;;;;26.63;12.10;;;-4.80;99.90;;;-8.97;100.00;99509.56;4982928;28;101163;-62
2021/01/31 06:32:05;;;;;;;26.50;11.87;;;-4.80;99.90;;;-9.09;100.00;99510.84;4981675;28;100315;-63
2021/01/31 06:34:32;;;;;;;20.83;11.17;;;-4.10;99.90;;;-9.06;100.00;99510.75;4982338;28;100496;-62
2021/01/31 06:37:23;;;;;;;21.20;11.63;;;-5.20;99.90;;;-9.25;100.00;99507.09;4981527;27;101723;-62
2021/01/31 06:40:03;;;;;;;30.20;13.83;;;-4.20;99.90;;;-9.36;100.00;99507.47;4982209;28;100722;-62
2021/01/31 06:42:44;;;;;;;23.50;12.30;;;-5.30;99.90;;;-9.48;100.00;99511.34;4982492;28;100090;-61
2021/01/31 06:45:27;;;;;;;19.47;12.13;;;-5.50;99.90;;;-9.49;100.00;99508.78;4982848;28;100176;-61
2021/01/31 06:48:40;;;;;;;21.70;12.57;;;-5.50;99.90;;;-9.53;100.00;99508.06;4981831;28;101752;-63
2021/01/31 06:51:44;;;;;;;38.57;19.03;;;-5.70;99.90;;;-9.67;100.00;99517.19;4982601;28;100501;-62
2021/01/31 06:55:06;;;;;;;56.97;27.90;;;-4.60;99.90;;;-9.85;100.00;99519.47;4981133;28;100337;-61
2021/01/31 06:58:00;;;;;;;50.17;25.87;;;-5.80;99.90;;;-9.61;100.00;99520.41;4973149;28;99998;-63
2021/01/31 07:01:17;;;;;;;39.97;21.77;;;-6.10;99.90;;;-9.62;100.00;99517.88;4981842;28;100454;-62
2021/01/31 07:04:17;;;;;;;39.87;20.30;;;-6.10;99.90;;;-9.65;100.00;99521.44;4969194;28;100358;-61
2021/01/31 07:07:12;;;;;;;31.20;17.63;;;-6.10;99.90;;;-9.68;100.00;99518.94;4982748;28;99965;-62
2021/01/31 07:10:11;;;;;;;27.40;16.33;;;-6.10;99.90;;;-9.45;100.00;99524.19;4983444;28;100085;-61
2021/01/31 07:12:53;;;;;;;25.07;15.33;;;-6.10;99.90;;;-9.35;100.00;99529.03;4982284;28;101515;-61
2021/01/31 07:15:21;;;;;;;22.50;14.20;;;-5.80;99.90;;;-9.50;100.00;99527.81;4983454;28;99996;-62
2021/01/31 07:17:55;;;;;;;64.07;41.30;;;-5.70;99.90;;;-9.45;100.00;99534.53;4982541;28;100168;-62
2021/01/31 07:20:27;;;;;;;77.30;46.80;;;-4.90;99.90;;;-8.88;100.00;99533.38;4981681;28;100302;-63
2021/01/31 07:23:03;;;;;;;57.60;34.77;;;-4.00;99.90;;;-9.07;100.00;99543.59;4982096;28;100901;-63
2021/01/31 07:25:35;;;;;;;24.07;16.20;;;-4.70;99.90;;;-8.99;100.00;99535.53;4980974;28;100190;-63
2021/01/31 07:28:07;;;;;;;20.67;14.90;;;-4.20;99.90;;;-9.03;100.00;99535.72;4961097;28;100124;-63
2021/01/31 07:30:40;;;;;;;17.90;12.67;;;-4.00;99.90;;;-9.00;100.00;99540.75;4967396;28;101666;-63
2021/01/31 07:33:17;;;;;;;17.13;10.13;;;-3.80;99.90;;;-8.84;100.00;99536.72;4979804;28;101413;-63
2021/01/31 07:35:57;;;;;;;14.17;11.00;;;-3.00;99.90;;;-8.58;100.00;99540.97;4979018;28;100650;-64
2021/01/31 07:38:33;;;;;;;14.20;9.30;;;-3.00;99.90;;;-8.81;100.00;99536.63;4979779;28;100159;-64
2021/01/31 07:41:02;;;;;;;12.97;8.47;;;-3.20;99.90;;;-8.74;100.00;99543.25;4978906;28;100248;-64
2021/01/31 07:43:33;;;;;;;18.30;13.77;;;-2.90;99.90;;;-8.93;100.00;99540.50;4980174;28;100872;-65
2021/01/31 07:46:03;;;;;;;16.73;13.13;;;-2.90;99.90;;;-9.09;100.00;99536.75;4979532;28;99945;-64
2021/01/31 07:48:56;;;;;;;23.43;17.00;;;-2.70;99.90;;;-9.05;100.00;99540.09;4979195;28;100202;-64
2021/01/31 07:52:08;;;;;;;37.33;28.07;;;-2.60;99.90;;;-9.02;100.00;99540.81;4980280;28;100075;-64
2021/01/31 07:54:37;;;;;;;25.03;17.77;;;-2.30;99.90;;;-8.70;100.00;99534.47;4921190;28;101182;-64
2021/01/31 07:57:34;;;;;;;23.03;15.90;;;-1.80;99.90;;;-8.40;100.00;99540.25;4976754;28;100547;-63
2021/01/31 08:00:09;;;;;;;26.33;15.70;;;-1.90;99.90;;;-8.90;100.00;99537.78;4986697;28;100179;-64
2021/01/31 08:02:39;;;;;;;52.63;29.00;;;-2.00;99.90;;;-9.04;100.00;99534.88;4982837;28;100381;-63
2021/01/31 08:05:08;;;;;;;69.97;37.20;;;-1.30;99.90;;;-8.87;100.00;99540.28;4983078;28;100792;-65
2021/01/31 08:08:06;;;;;;;74.27;37.77;;;-1.90;99.90;;;-8.54;100.00;99532.16;4982445;28;100585;-64
2021/01/31 08:10:49;;;;;;;57.20;29.93;;;-1.60;99.90;;;-8.49;100.00;99528.47;4982356;28;100050;-63
2021/01/31 08:13:40;;;;;;;40.90;24.07;;;-1.70;99.90;;;-8.28;100.00;99529.38;4982882;28;100102;-62
2021/01/31 08:16:54;;;;;;;44.00;27.07;;;-1.70;99.90;;;-8.37;100.00;99540.97;4981827;28;101505;-63
2021/01/31 08:19:30;;;;;;;20.47;14.57;;;-1.60;99.90;;;-7.98;100.00;99527.34;4962506;28;100837;-63
2021/01/31 08:22:00;;;;;;;16.43;13.37;;;-1.20;99.90;;;-7.91;100.00;99525.34;4961924;28;100538;-63
2021/01/31 08:25:03;;;;;;;27.90;18.93;;;-1.00;99.90;;;-8.23;100.00;99524.84;4968409;28;100037;-64
2021/01/31 08:27:53;;;;;;;26.07;19.33;;;-0.60;99.90;;;-7.73;100.00;99532.38;4972380;28;101349;-65
2021/01/31 08:30:32;;;;;;;41.50;32.30;;;-0.30;99.90;;;-7.92;100.00;99523.66;4982095;28;100473;-63
2021/01/31 08:33:22;;;;;;;60.57;51.63;;;-0.10;99.90;;;-7.74;100.00;99528.09;4981776;28;100156;-64
2021/01/31 08:36:23;;;;;;;49.67;44.67;;;0.20;99.90;;;-7.93;100.00;99522.81;4980356;28;100244;-64
2021/01/31 08:38:53;;;;;;;16.97;13.37;;;0.40;99.90;;;-7.92;100.00;99521.91;4971181;28;100734;-63
2021/01/31 08:41:39;;;;;;;13.83;10.77;;;0.70;99.90;;;-7.76;100.00;99522.09;4981987;28;100439;-64
2021/01/31 08:44:57;;;;;;;14.90;10.93;;;1.00;99.90;;;-6.95;100.00;99522.97;4982377;28;100128;-64
2021/01/31 08:47:24;;;;;;;16.60;12.50;;;1.20;99.90;;;-7.35;100.00;99516.03;4976454;28;100177;-64
2021/01/31 08:50:03;;;;;;;15.93;12.37;;;1.30;99.90;;;-7.27;100.00;99515.72;4961745;28;100238;-66
2021/01/31 08:52:29;;;;;;;19.77;13.97;;;1.30;99.90;;;-7.07;100.00;99518.31;4968320;28;101730;-65
2021/01/31 08:55:01;;;;;;;17.97;14.07;;;1.50;99.90;;;-6.91;100.00;99518.47;4981874;28;99940;-64
2021/01/31 08:57:29;;;;;;;14.77;11.03;;;1.60;99.90;;;-6.86;100.00;99519.09;4981698;28;100023;-66
2021/01/31 09:00:04;;;;;;;11.87;8.73;;;1.50;99.90;;;-6.90;100.00;99517.56;4982087;28;100488;-68
2021/01/31 09:02:31;;;;;;;13.63;9.07;;;1.50;99.90;;;-6.79;100.00;99509.25;4982110;28;100460;-68
2021/01/31 09:05:06;;;;;;;15.93;12.33;;;1.60;99.90;;;-6.68;100.00;99520.06;4981356;28;100205;-70
2021/01/31 09:07:36;;;;;;;16.20;11.83;;;1.80;99.90;;;-6.69;100.00;99518.38;4985248;28;100046;-67
2021/01/31 09:10:07;;;;;;;11.87;9.30;;;2.00;99.90;;;-6.47;100.00;99524.28;4984174;28;100903;-68
2021/01/31 09:12:35;;;;;;;9.27;6.90;;;2.20;99.90;;;-6.47;100.00;99526.88;4981210;28;100118;-66
2021/01/31 09:15:14;;;;;;;10.80;7.43;;;2.50;99.90;;;-5.89;100.00;99519.78;4980228;28;100352;-67
2021/01/31 09:17:41;;;;;;;13.93;8.67;;;2.40;99.90;;;-5.91;100.00;99518.16;4981780;28;99950;-74
2021/01/31 09:20:20;;;;;;;13.03;9.40;;;2.40;99.90;;;-6.53;100.00;99522.78;4980568;28;101011;-70
2021/01/31 09:22:50;;;;;;;20.27;18.10;;;2.70;99.90;;;-5.80;100.00;99516.69;4981368;28;100483;-73
2021/01/31 09:25:20;;;;;;;15.83;11.87;;;2.90;99.90;;;-5.68;100.00;99517.00;4980702;28;100001;-72
2021/01/31 09:28:01;;;;;;;17.00;13.73;;;3.00;99.90;;;-5.34;100.00;99516.19;4978215;28;100276;-72
2021/01/31 09:30:29;;;;;;;19.93;15.57;;;3.30;99.90;;;-5.81;100.00;99506.34;4980469;28;100715;-70
2021/01/31 09:33:03;;;;;;;20.60;17.00;;;3.50;99.90;;;-5.78;100.00;99504.44;4981299;28;100656;-68
2021/01/31 09:35:33;;;;;;;20.63;17.33;;;3.70;99.90;;;-4.81;100.00;99502.97;4981869;28;100087;-71
2021/01/31 09:38:22;;;;;;;24.60;15.23;;;3.90;99.90;;;-4.20;100.00;99500.47;4978958;28;99966;-70
2021/01/31 09:40:49;;;;;;;19.50;14.60;;;3.90;99.90;;;-3.65;100.00;99500.84;4978609;28;103212;-68
2021/01/31 09:43:23;;;;;;;16.60;14.13;;;4.10;99.90;;;-3.96;100.00;99502.69;4979161;28;100522;-68
2021/01/31 09:45:52;;;;;;;16.33;13.27;;;4.40;99.90;;;-3.59;100.00;99501.44;4980479;28;100403;-67
2021/01/31 09:48:22;;;;;;;13.73;11.17;;;4.50;99.90;;;-4.78;100.00;99508.88;4981335;28;100310;-66
2021/01/31 09:50:54;;;;;;;48.20;43.43;;;4.40;99.90;;;-4.41;100.00;99517.34;4980526;28;101063;-64
2021/01/31 09:53:32;;;;;;;32.97;29.60;;;5.00;99.90;;;-3.87;100.00;99515.22;4984437;28;101013;-66
2021/01/31 09:55:59;;;;;;;15.57;13.93;;;5.60;99.90;;;-3.77;100.00;99513.78;4982001;28;100172;-64
2021/01/31 09:58:37;;;;;;;15.97;13.33;;;5.20;99.90;;;-3.58;100.00;99516.16;4981493;28;100121;-64
2021/01/31 10:01:14;;;;;;;35.67;28.00;;;5.40;99.90;;;-3.78;100.00;99514.69;4960387;28;101247;-64
2021/01/31 10:03:41;;;;;;;19.53;16.27;;;5.40;99.90;;;-3.50;100.00;99508.75;4959874;28;100797;-64
2021/01/31 10:06:12;;;;;;;22.37;16.73;;;5.60;99.90;;;-2.88;100.00;99504.19;4959971;28;100050;-64
2021/01/31 10:08:49;;;;;;;80.70;58.00;;;5.70;99.90;;;-3.74;100.00;99517.06;4971614;28;100434;-64
2021/01/31 10:11:38;;;;;;;191.60;165.53;;;5.90;99.90;;;-3.02;100.00;99510.25;4979996;28;100807;-65
2021/01/31 10:14:08;;;;;;;23.27;19.30;;;6.10;99.90;;;-3.05;100.00;99508.66;4979128;28;100303;-67
2021/01/31 10:16:38;;;;;;;16.03;13.20;;;6.20;99.90;;;-2.81;100.00;99501.09;4979762;28;100001;-66
2021/01/31 10:19:15;;;;;;;17.57;12.83;;;6.20;99.90;;;-3.00;100.00;99506.59;4980692;28;100278;-66
2021/01/31 10:21:47;;;;;;;28.67;25.87;;;7.20;99.90;;;-3.17;100.00;99509.38;4960077;28;101534;-67
2021/01/31 10:24:28;;;;;;;15.40;13.40;;;6.40;99.90;;;-2.70;100.00;99500.44;4974186;28;100537;-66
2021/01/31 10:27:09;;;;;;;22.57;13.93;;;6.60;99.90;;;-2.35;100.00;99503.50;4980493;28;100258;-66